sensor_id;sensor_type;location;lat;lon;timestamp;P1;durP1;ratioP1;P2;durP2;ratioP2
76708;SDS011;65638;44.498;0.166;2023-03-23T00:11:17;7.97;;;3.90;;
76708;SDS011;65638;44.498;0.166;2023-03-23T00:31:48;6.90;;;3.53;;
76708;SDS011;65638;44.498;0.166;2023-03-23T00:52:13;6.70;;;2.70;;
76708;SDS011;65638;44.498;0.166;2023-03-23T01:12:41;6.73;;;2.67;;
76708;SDS011;65638;44.498;0.166;2023-03-23T01:33:08;6.87;;;3.37;;
76708;SDS011;65638;44.498;0.166;2023-03-23T01:53:37;8.20;;;3.50;;
76708;SDS011;65638;44.498;0.166;2023-03-23T02:14:03;6.87;;;2.50;;
76708;SDS011;65638;44.498;0.166;2023-03-23T02:34:33;6.60;;;2.30;;
76708;SDS011;65638;44.498;0.166;2023-03-23T02:55:01;6.43;;;2.50;;
76708;SDS011;65638;44.498;0.166;2023-03-23T03:15:29;6.80;;;2.70;;
76708;SDS011;65638;44.498;0.166;2023-03-23T03:35:57;7.20;;;2.73;;
76708;SDS011;65638;44.498;0.166;2023-03-23T03:56:23;6.57;;;2.20;;
76708;SDS011;65638;44.498;0.166;2023-03-23T04:16:52;6.70;;;2.30;;
76708;SDS011;65638;44.498;0.166;2023-03-23T04:37:19;5.40;;;2.30;;
76708;SDS011;65638;44.498;0.166;2023-03-23T04:57:46;5.23;;;2.23;;
76708;SDS011;65638;44.498;0.166;2023-03-23T05:18:12;6.57;;;2.83;;
76708;SDS011;65638;44.498;0.166;2023-03-23T05:38:39;5.10;;;2.10;;
76708;SDS011;65638;44.498;0.166;2023-03-23T05:59:06;5.27;;;2.00;;
76708;SDS011;65638;44.498;0.166;2023-03-23T06:19:35;7.40;;;2.80;;
76708;SDS011;65638;44.498;0.166;2023-03-23T06:40:05;5.50;;;2.37;;
76708;SDS011;65638;44.498;0.166;2023-03-23T07:00:31;7.00;;;2.20;;
76708;SDS011;65638;44.498;0.166;2023-03-23T07:21:01;5.77;;;2.30;;
76708;SDS011;65638;44.498;0.166;2023-03-23T07:41:29;5.77;;;2.10;;
76708;SDS011;65638;44.498;0.166;2023-03-23T08:02:01;6.60;;;2.27;;
76708;SDS011;65638;44.498;0.166;2023-03-23T08:22:29;6.97;;;2.10;;
76708;SDS011;65638;44.498;0.166;2023-03-23T08:42:55;7.00;;;2.50;;
76708;SDS011;65638;44.498;0.166;2023-03-23T09:03:25;5.97;;;1.93;;
76708;SDS011;65638;44.498;0.166;2023-03-23T09:23:59;5.33;;;2.00;;
76708;SDS011;65638;44.498;0.166;2023-03-23T09:44:31;5.67;;;2.20;;
76708;SDS011;65638;44.498;0.166;2023-03-23T10:04:55;7.93;;;2.80;;
76708;SDS011;65638;44.498;0.166;2023-03-23T10:25:23;7.63;;;2.50;;
76708;SDS011;65638;44.498;0.166;2023-03-23T10:45:48;5.83;;;2.90;;
76708;SDS011;65638;44.498;0.166;2023-03-23T11:06:19;6.97;;;2.70;;
76708;SDS011;65638;44.498;0.166;2023-03-23T11:26:43;7.07;;;2.87;;
76708;SDS011;65638;44.498;0.166;2023-03-23T11:47:15;6.43;;;3.03;;
76708;SDS011;65638;44.498;0.166;2023-03-23T12:07:46;6.13;;;2.57;;
76708;SDS011;65638;44.498;0.166;2023-03-23T12:28:11;5.80;;;2.70;;
76708;SDS011;65638;44.498;0.166;2023-03-23T12:48:37;7.73;;;2.97;;
76708;SDS011;65638;44.498;0.166;2023-03-23T13:09:11;8.10;;;3.03;;
76708;SDS011;65638;44.498;0.166;2023-03-23T13:29:32;7.37;;;2.50;;
76708;SDS011;65638;44.498;0.166;2023-03-23T13:50:01;6.77;;;2.50;;
76708;SDS011;65638;44.498;0.166;2023-03-23T14:10:35;8.00;;;2.90;;
76708;SDS011;65638;44.498;0.166;2023-03-23T14:30:54;5.40;;;2.23;;
76708;SDS011;65638;44.498;0.166;2023-03-23T14:51:21;6.73;;;2.40;;
76708;SDS011;65638;44.498;0.166;2023-03-23T15:11:51;7.43;;;2.00;;
76708;SDS011;65638;44.498;0.166;2023-03-23T15:32:21;6.00;;;2.13;;
76708;SDS011;65638;44.498;0.166;2023-03-23T15:52:51;5.63;;;2.00;;
76708;SDS011;65638;44.498;0.166;2023-03-23T16:13:15;5.20;;;2.10;;
76708;SDS011;65638;44.498;0.166;2023-03-23T16:33:41;6.63;;;2.33;;
76708;SDS011;65638;44.498;0.166;2023-03-23T16:54:09;12.03;;;3.50;;
76708;SDS011;65638;44.498;0.166;2023-03-23T17:14:37;7.37;;;3.00;;
76708;SDS011;65638;44.498;0.166;2023-03-23T17:35:05;8.37;;;3.27;;
76708;SDS011;65638;44.498;0.166;2023-03-23T17:55:30;9.00;;;3.73;;
76708;SDS011;65638;44.498;0.166;2023-03-23T18:15:58;8.07;;;3.80;;
76708;SDS011;65638;44.498;0.166;2023-03-23T18:36:25;8.67;;;4.50;;
76708;SDS011;65638;44.498;0.166;2023-03-23T18:56:54;10.90;;;5.77;;
76708;SDS011;65638;44.498;0.166;2023-03-23T19:17:18;11.23;;;6.00;;
76708;SDS011;65638;44.498;0.166;2023-03-23T19:37:47;11.30;;;6.23;;
76708;SDS011;65638;44.498;0.166;2023-03-23T19:58:14;12.07;;;6.30;;
76708;SDS011;65638;44.498;0.166;2023-03-23T20:18:40;11.27;;;5.97;;
76708;SDS011;65638;44.498;0.166;2023-03-23T20:39:08;14.50;;;7.40;;
76708;SDS011;65638;44.498;0.166;2023-03-23T20:59:35;11.10;;;6.20;;
76708;SDS011;65638;44.498;0.166;2023-03-23T21:20:07;12.13;;;6.30;;
76708;SDS011;65638;44.498;0.166;2023-03-23T21:40:30;12.47;;;7.20;;
76708;SDS011;65638;44.498;0.166;2023-03-23T22:01:00;14.07;;;7.13;;
76708;SDS011;65638;44.498;0.166;2023-03-23T22:21:25;11.47;;;5.20;;
76708;SDS011;65638;44.498;0.166;2023-03-23T22:41:53;16.60;;;9.23;;
76708;SDS011;65638;44.498;0.166;2023-03-23T23:02:20;22.97;;;11.73;;
76708;SDS011;65638;44.498;0.166;2023-03-23T23:22:48;23.07;;;12.07;;
76708;SDS011;65638;44.498;0.166;2023-03-23T23:43:15;19.33;;;11.47;;
